Time;durP1;ratioP1;P1;durP2;ratioP2;P2;SDS_P1;SDS_P2;PMS_P1;PMS_P2;Temp;Humidity;BMP_temperature;BMP_pressure;BME280_temperature;BME280_humidity;BME280_pressure;Samples;Min_cycle;Max_cycle;Signal;HPM_P1;HPM_P2
2021/03/29 00:01:38;;;;;;;10.30;5.12;;;;;;;8.24;62.04;101973.05;1633600;86;21187;-75
2021/03/29 00:04:23;;;;;;;9.80;4.87;;;;;;;8.27;62.17;101969.66;1631798;86;21169;-75
2021/03/29 00:07:09;;;;;;;10.60;4.42;;;;;;;8.27;62.17;101968.36;1631045;86;21018;-75
2021/03/29 00:09:56;;;;;;;8.40;4.62;;;;;;;8.25;62.19;101968.34;1633425;86;21159;-75
2021/03/29 00:12:44;;;;;;;12.60;4.85;;;;;;;8.27;62.29;101973.09;1620137;86;21223;-75
2021/03/29 00:15:33;;;;;;;14.83;5.30;;;;;;;8.27;62.30;101973.09;1630385;86;21309;-76
2021/03/29 00:18:19;;;;;;;10.38;4.47;;;;;;;8.28;62.37;101968.39;1608933;87;21251;-76
2021/03/29 00:21:07;;;;;;;8.28;4.60;;;;;;;8.27;62.42;101964.08;1630887;86;21239;-76
2021/03/29 00:23:52;;;;;;;10.78;5.22;;;;;;;8.31;62.46;101972.72;1633697;86;21009;-76
2021/03/29 00:26:38;;;;;;;10.88;4.60;;;;;;;8.30;62.48;101967.98;1621160;86;21144;-76
2021/03/29 00:29:23;;;;;;;9.10;4.72;;;;;;;8.31;62.56;101972.72;1619930;87;21206;-76
2021/03/29 00:32:09;;;;;;;10.38;4.75;;;;;;;8.31;62.58;101966.28;1637663;86;21030;-76
2021/03/29 00:34:55;;;;;;;10.10;4.83;;;;;;;8.33;62.68;101960.72;1624842;86;21026;-76
2021/03/29 00:37:43;;;;;;;12.27;5.03;;;;;;;8.34;62.69;101957.72;1613609;87;21159;-76
2021/03/29 00:40:28;;;;;;;10.72;5.35;;;;;;;8.36;62.77;101957.33;1632802;86;21414;-76
2021/03/29 00:43:21;;;;;;;11.30;4.78;;;;;;;8.37;62.80;101971.95;1631650;86;21053;-76
2021/03/29 00:46:08;;;;;;;7.83;4.10;;;;;;;8.37;62.83;101975.81;1627690;86;21016;-76
2021/03/29 00:48:54;;;;;;;8.48;4.45;;;;;;;8.37;62.86;101972.81;1640095;86;21162;-76
2021/03/29 00:51:40;;;;;;;11.12;4.80;;;;;;;8.39;62.91;101963.81;1623632;86;21181;-76
2021/03/29 00:54:26;;;;;;;9.40;4.28;;;;;;;8.41;62.94;101970.72;1632414;86;21152;-76
2021/03/29 00:57:12;;;;;;;11.20;4.95;;;;;;;8.44;63.01;101964.75;1618129;86;21167;-76
2021/03/29 00:59:57;;;;;;;10.05;4.72;;;;;;;8.44;63.07;101963.03;1633289;85;21458;-76
2021/03/29 01:02:43;;;;;;;11.97;4.28;;;;;;;8.47;63.16;101963.50;1630009;86;21113;-76
2021/03/29 01:05:28;;;;;;;11.97;4.95;;;;;;;8.49;63.18;101962.68;1628200;86;21308;-76
2021/03/29 01:08:16;;;;;;;8.85;4.75;;;;;;;8.50;63.16;101962.26;1631753;86;21234;-75
2021/03/29 01:11:04;;;;;;;19.95;5.60;;;;;;;8.49;63.21;101967.84;1631553;86;21676;-75
2021/03/29 01:13:57;;;;;;;11.45;5.50;;;;;;;8.50;63.25;101969.98;1623510;86;21659;-75
2021/03/29 01:16:50;;;;;;;11.73;4.75;;;;;;;8.48;63.25;101960.95;1634961;86;21282;-75
2021/03/29 01:19:49;;;;;;;8.43;4.92;;;;;;;8.48;63.32;101963.52;1629547;86;21771;-75
2021/03/29 01:22:49;;;;;;;11.15;5.20;;;;;;;8.47;63.29;101960.50;1625483;86;21260;-75
2021/03/29 01:25:49;;;;;;;8.45;4.78;;;;;;;8.46;63.39;101963.06;1624601;86;21254;-75
2021/03/29 01:28:35;;;;;;;11.33;5.62;;;;;;;8.44;63.40;101954.02;1623365;86;21202;-75
2021/03/29 01:31:20;;;;;;;12.40;6.17;;;;;;;8.45;63.43;101955.75;1635093;86;21195;-75
2021/03/29 01:34:07;;;;;;;11.90;5.53;;;;;;;8.45;63.48;101961.33;1623683;87;21140;-75
2021/03/29 01:36:53;;;;;;;12.30;5.30;;;;;;;8.43;63.45;101957.86;1620733;88;21179;-75
2021/03/29 01:39:40;;;;;;;12.37;5.28;;;;;;;8.42;63.54;101954.84;1613455;88;21050;-75
2021/03/29 01:42:25;;;;;;;10.15;5.00;;;;;;;8.41;63.56;101950.53;1621609;88;21136;-75
2021/03/29 01:45:12;;;;;;;10.28;4.92;;;;;;;8.41;63.61;101947.95;1622048;86;21479;-75
2021/03/29 01:47:57;;;;;;;9.30;5.37;;;;;;;8.40;63.59;101956.52;1620692;88;21006;-75
2021/03/29 01:50:45;;;;;;;8.20;5.17;;;;;;;8.37;63.66;101957.34;1620648;86;21192;-75
2021/03/29 01:53:32;;;;;;;12.55;5.70;;;;;;;8.38;63.72;101953.92;1620792;87;21909;-75
2021/03/29 01:56:17;;;;;;;13.50;5.25;;;;;;;8.38;63.68;101949.19;1610978;87;21173;-75
2021/03/29 01:59:02;;;;;;;12.15;6.40;;;;;;;8.37;63.77;101953.48;1612950;88;21039;-75
2021/03/29 02:01:47;;;;;;;16.35;5.97;;;;;;;8.37;63.78;101953.91;1612918;87;21165;-75
2021/03/29 02:04:32;;;;;;;10.50;5.35;;;;;;;8.37;63.81;101955.19;1610527;87;21061;-75
2021/03/29 02:07:19;;;;;;;10.80;5.30;;;;;;;8.36;63.84;101965.92;1613056;88;21149;-75
2021/03/29 02:10:15;;;;;;;11.00;5.17;;;;;;;8.35;63.85;101956.88;1610755;88;21188;-75
2021/03/29 02:13:12;;;;;;;13.18;5.60;;;;;;;8.34;63.91;101959.02;1613318;88;21371;-75
2021/03/29 02:16:03;;;;;;;12.85;5.33;;;;;;;8.34;63.93;101958.59;1625649;87;21217;-75
2021/03/29 02:18:56;;;;;;;11.43;5.50;;;;;;;8.35;63.98;101959.45;1606973;88;21225;-75
2021/03/29 02:21:43;;;;;;;10.40;4.83;;;;;;;8.36;64.01;101954.75;1611246;87;21253;-75
2021/03/29 02:24:30;;;;;;;11.93;5.15;;;;;;;8.35;64.02;101955.59;1611316;87;21249;-75
2021/03/29 02:27:15;;;;;;;7.22;4.45;;;;;;;8.32;64.04;101949.94;1611606;87;21232;-76
2021/03/29 02:30:00;;;;;;;10.30;4.60;;;;;;;8.29;64.08;101943.06;1613587;87;21164;-76
2021/03/29 02:32:48;;;;;;;13.43;4.75;;;;;;;8.29;64.13;101952.08;1613176;88;21156;-76
2021/03/29 02:35:35;;;;;;;16.27;5.47;;;;;;;8.28;64.12;101944.33;1613149;88;21168;-76
2021/03/29 02:38:20;;;;;;;11.88;5.25;;;;;;;8.28;64.21;101945.62;1613880;87;21538;-76
2021/03/29 02:41:05;;;;;;;11.73;5.05;;;;;;;8.33;64.24;101946.97;1608201;87;21240;-76
2021/03/29 02:43:51;;;;;;;14.63;5.47;;;;;;;8.32;64.27;101945.23;1610681;88;21261;-76
2021/03/29 02:46:36;;;;;;;11.55;5.67;;;;;;;8.31;64.32;101945.66;1601671;86;21491;-76
2021/03/29 02:49:22;;;;;;;9.00;4.67;;;;;;;8.30;64.35;101952.53;1610351;87;21264;-75
2021/03/29 02:52:07;;;;;;;11.77;5.00;;;;;;;8.29;64.41;101953.37;1611857;88;21240;-75
2021/03/29 02:54:53;;;;;;;9.35;4.60;;;;;;;8.28;64.44;101955.50;1611660;88;21553;-75
2021/03/29 02:57:43;;;;;;;10.40;4.50;;;;;;;8.29;64.48;101964.09;1592202;88;21232;-75
2021/03/29 03:00:29;;;;;;;11.48;4.40;;;;;;;8.29;64.52;101958.95;1585833;88;21232;-75
2021/03/29 03:03:14;;;;;;;15.68;5.53;;;;;;;8.31;64.60;101962.41;1584377;89;21723;-75
2021/03/29 03:05:59;;;;;;;8.23;4.50;;;;;;;8.33;64.61;101967.16;1596144;89;21369;-75
2021/03/29 03:08:45;;;;;;;9.18;4.95;;;;;;;8.33;64.62;101954.28;1596952;89;21243;-75
2021/03/29 03:11:30;;;;;;;11.20;5.05;;;;;;;8.32;64.62;101966.69;1595759;89;21256;-75
2021/03/29 03:14:15;;;;;;;8.98;5.33;;;;;;;8.29;64.68;101971.41;1560751;91;21231;-75
2021/03/29 03:17:00;;;;;;;9.05;4.28;;;;;;;8.29;64.75;101971.83;1594841;89;21190;-75
2021/03/29 03:19:45;;;;;;;8.73;4.87;;;;;;;8.30;64.80;101974.43;1597525;88;21181;-75
2021/03/29 03:22:30;;;;;;;11.75;4.80;;;;;;;8.31;64.83;101970.14;1570727;91;21447;-75
2021/03/29 03:25:29;;;;;;;12.28;5.05;;;;;;;8.30;64.87;101966.70;1596339;89;21162;-75
2021/03/29 03:28:18;;;;;;;12.80;5.65;;;;;;;8.32;64.87;101972.30;1589728;89;21188;-75
2021/03/29 03:31:03;;;;;;;11.75;6.03;;;;;;;8.30;64.91;101978.72;1579738;89;21207;-75
2021/03/29 03:33:48;;;;;;;12.98;5.78;;;;;;;8.28;64.92;101972.25;1597714;89;21173;-75
2021/03/29 03:36:33;;;;;;;9.30;4.85;;;;;;;8.26;65.01;101973.94;1597028;88;21067;-75
2021/03/29 03:39:19;;;;;;;13.13;5.45;;;;;;;8.26;65.03;101968.78;1551619;91;21172;-75
2021/03/29 03:42:07;;;;;;;10.20;5.50;;;;;;;8.27;64.92;101969.66;1594997;88;21191;-75
2021/03/29 03:44:52;;;;;;;10.93;5.30;;;;;;;8.28;65.11;101973.54;1570399;90;21076;-75
2021/03/29 03:47:39;;;;;;;12.33;5.30;;;;;;;8.28;65.13;101974.83;1572322;91;21547;-75
2021/03/29 03:50:24;;;;;;;9.85;4.58;;;;;;;8.30;65.20;101978.30;1586486;90;21064;-75
2021/03/29 03:53:09;;;;;;;8.95;5.40;;;;;;;8.32;65.19;101984.73;1597325;89;21171;-75
2021/03/29 03:55:57;;;;;;;13.32;4.53;;;;;;;8.31;65.24;101975.30;1597698;89;21204;-75
2021/03/29 03:58:42;;;;;;;14.15;5.33;;;;;;;8.33;65.33;101981.77;1630796;86;647205;-75
2021/03/29 04:01:27;;;;;;;13.08;5.83;;;;;;;8.33;65.32;101976.19;1663238;85;21148;-75
2021/03/29 04:04:12;;;;;;;15.35;5.55;;;;;;;8.33;65.38;101983.92;1648167;86;21168;-75
2021/03/29 04:06:58;;;;;;;12.45;5.20;;;;;;;8.33;65.43;101989.50;1650011;85;21134;-75
2021/03/29 04:09:52;;;;;;;9.30;4.75;;;;;;;8.30;65.43;101985.16;1656274;85;21047;-75
2021/03/29 04:12:33;;;;;;;11.57;4.72;;;;;;;8.29;65.53;101983.00;1670006;82;21026;-75
2021/03/29 04:15:18;;;;;;;11.63;5.53;;;;;;;8.28;65.59;101976.54;1672066;85;21150;-75
2021/03/29 04:18:04;;;;;;;12.58;4.72;;;;;;;8.25;65.61;101983.80;1683911;84;21240;-75
2021/03/29 04:20:50;;;;;;;7.80;4.40;;;;;;;8.23;65.63;101986.77;1674678;85;21512;-75
2021/03/29 04:23:35;;;;;;;9.20;4.80;;;;;;;8.23;65.67;101980.75;1683191;84;21222;-75
2021/03/29 04:26:20;;;;;;;10.60;5.08;;;;;;;8.23;65.69;101978.17;1682243;85;21229;-75
2021/03/29 04:29:06;;;;;;;11.85;4.75;;;;;;;8.23;65.74;101980.33;1621408;85;308852;-75
2021/03/29 04:31:51;;;;;;;8.15;4.60;;;;;;;8.25;65.80;101980.36;1647469;86;21107;-75
2021/03/29 04:34:36;;;;;;;9.63;4.83;;;;;;;8.22;65.80;101981.17;1642133;86;21250;-76
2021/03/29 04:37:21;;;;;;;12.98;6.42;;;;;;;8.23;65.81;101975.18;1653228;86;21200;-75
2021/03/29 04:40:07;;;;;;;11.90;5.83;;;;;;;8.24;65.84;101979.91;1654559;86;21296;-75
2021/03/29 04:42:53;;;;;;;12.47;5.92;;;;;;;8.25;65.92;101979.94;1654316;85;21427;-75
2021/03/29 04:45:38;;;;;;;12.75;6.78;;;;;;;8.27;65.79;101971.80;1646541;87;21238;-75
2021/03/29 04:48:23;;;;;;;13.53;6.83;;;;;;;8.28;65.93;101979.11;1646976;86;21289;-75
2021/03/29 04:51:08;;;;;;;13.55;6.42;;;;;;;8.28;65.96;101977.83;1651417;86;21242;-75
2021/03/29 04:53:53;;;;;;;12.88;6.75;;;;;;;8.29;66.00;101977.84;1623557;86;21559;-75
2021/03/29 04:56:38;;;;;;;14.47;6.72;;;;;;;8.28;66.00;101976.54;1641162;86;21210;-75
2021/03/29 04:59:24;;;;;;;14.78;6.72;;;;;;;8.29;66.04;101980.42;1647106;86;21238;-75
2021/03/29 05:02:10;;;;;;;19.97;7.70;;;;;;;8.32;66.07;101982.61;1643882;86;21205;-75
2021/03/29 05:04:55;;;;;;;20.37;8.65;;;;;;;8.33;66.10;101985.63;1637202;87;21511;-76
2021/03/29 05:07:40;;;;;;;21.27;9.43;;;;;;;8.34;66.11;101986.94;1631980;86;21257;-75
2021/03/29 05:10:26;;;;;;;17.92;9.70;;;;;;;8.35;66.16;101987.80;1635424;87;21223;-75
2021/03/29 05:13:11;;;;;;;16.97;10.38;;;;;;;8.36;66.18;101981.39;1645915;86;21656;-75
2021/03/29 05:15:56;;;;;;;18.42;9.38;;;;;;;8.37;66.22;101983.13;1633010;86;21239;-72
2021/03/29 05:18:41;;;;;;;17.50;10.08;;;;;;;8.37;66.25;101983.13;1622076;85;21225;-72
2021/03/29 05:21:27;;;;;;;20.15;9.08;;;;;;;8.37;66.26;101983.13;1631036;86;21277;-73
2021/03/29 05:24:12;;;;;;;21.45;9.13;;;;;;;8.40;66.29;101986.16;1626362;87;21658;-72
2021/03/29 05:26:58;;;;;;;13.95;8.40;;;;;;;8.42;66.34;101984.05;1629326;86;21250;-72
2021/03/29 05:29:43;;;;;;;;;;;;;;;8.38;66.36;101978.41;1630971;86;21531;-72
2021/03/29 05:32:28;;;;;;;14.63;8.18;;;;;;;8.48;66.51;101980.28;1629822;86;20297;-72
2021/03/29 05:35:14;;;;;;;14.75;8.30;;;;;;;8.51;66.40;101975.17;1612949;86;21209;-72
2021/03/29 05:37:59;;;;;;;16.75;8.63;;;;;;;8.54;66.40;101981.66;1632699;86;21138;-72
2021/03/29 05:40:44;;;;;;;18.23;8.30;;;;;;;8.57;66.45;101982.99;1626433;86;21178;-72
2021/03/29 05:43:30;;;;;;;19.75;9.33;;;;;;;8.62;66.46;101985.22;1630916;86;21128;-72
2021/03/29 05:46:16;;;;;;;19.90;9.50;;;;;;;8.69;66.53;101984.01;1638888;86;21154;-72
2021/03/29 05:49:01;;;;;;;14.30;8.60;;;;;;;8.76;66.50;101983.25;1629584;86;21557;-72
2021/03/29 05:51:46;;;;;;;14.40;8.17;;;;;;;8.83;66.50;101987.22;1634304;86;21249;-72
2021/03/29 05:54:31;;;;;;;18.40;8.08;;;;;;;8.90;66.53;101989.00;1639397;85;21766;-72
2021/03/29 05:57:18;;;;;;;14.58;7.87;;;;;;;8.99;66.55;101983.52;1613452;86;21291;-72
2021/03/29 06:00:23;;;;;;;;;;;;;;;9.06;66.59;101983.61;1619870;86;22308;-73
2021/03/29 06:03:35;;;;;;;15.00;8.20;;;;;;;9.12;66.57;101981.11;1649400;84;20587;-77
2021/03/29 06:06:20;;;;;;;15.53;7.42;;;;;;;9.17;66.55;101988.91;1663864;84;21074;-77
2021/03/29 06:09:08;;;;;;;15.85;7.22;;;;;;;9.22;66.54;101986.81;1674218;84;21245;-76
2021/03/29 06:11:55;;;;;;;14.10;7.17;;;;;;;9.25;66.52;101990.72;1671222;83;21212;-76
2021/03/29 06:14:41;;;;;;;12.73;7.08;;;;;;;9.30;66.57;101992.07;1677683;83;21085;-79
2021/03/29 06:17:26;;;;;;;16.33;7.83;;;;;;;9.33;66.52;101984.78;1667506;83;21307;-80
2021/03/29 06:20:12;;;;;;;20.40;8.05;;;;;;;9.36;66.60;101995.98;1658556;85;21160;-80
2021/03/29 06:23:00;;;;;;;18.92;7.60;;;;;;;9.40;66.61;101993.88;1656914;84;21488;-79
2021/03/29 06:25:45;;;;;;;13.15;6.72;;;;;;;9.45;66.60;101993.50;1641100;85;21176;-80
2021/03/29 06:28:30;;;;;;;11.08;6.65;;;;;;;9.49;66.66;101988.81;1657520;86;21473;-80
2021/03/29 06:31:31;;;;;;;12.15;6.25;;;;;;;9.58;66.68;101995.36;1662136;83;21133;-80
2021/03/29 06:34:21;;;;;;;11.65;6.08;;;;;;;9.65;66.65;101991.55;1639406;86;21156;-80
2021/03/29 06:37:08;;;;;;;10.55;5.45;;;;;;;9.72;66.64;101998.51;1656010;86;21134;-80
2021/03/29 06:39:53;;;;;;;10.75;5.58;;;;;;;9.78;66.63;102000.73;1655347;86;22058;-79
2021/03/29 06:42:38;;;;;;;10.10;4.80;;;;;;;9.85;66.68;101997.77;1657481;85;21160;-80
2021/03/29 06:45:23;;;;;;;12.35;5.03;;;;;;;9.92;66.63;102008.58;1658305;86;21172;-79
2021/03/29 06:48:30;;;;;;;11.80;5.05;;;;;;;9.95;66.67;102006.02;1656500;85;21183;-79
2021/03/29 06:51:33;;;;;;;9.95;4.70;;;;;;;9.97;66.64;102010.77;1641674;86;22072;-79
2021/03/29 06:54:19;;;;;;;7.55;4.62;;;;;;;10.01;66.73;102015.55;1660159;86;21140;-79
2021/03/29 06:57:05;;;;;;;15.23;5.58;;;;;;;10.01;66.73;102020.28;1633128;86;21067;-80
2021/03/29 06:59:50;;;;;;;8.83;4.60;;;;;;;10.03;66.78;102021.16;1616970;88;21031;-80
2021/03/29 07:02:45;;;;;;;13.80;4.50;;;;;;;10.04;66.83;102019.02;1615354;87;21523;-79
2021/03/29 07:05:31;;;;;;;8.20;4.47;;;;;;;10.06;66.89;102023.78;1647399;85;21138;-80
2021/03/29 07:08:17;;;;;;;10.05;4.90;;;;;;;10.09;66.96;102020.35;1655499;85;21260;-80
2021/03/29 07:11:02;;;;;;;;;;;;;;;10.11;67.00;102023.39;1653263;84;21174;-79
2021/03/29 07:13:47;;;;;;;8.50;4.50;;;;;;;10.09;67.08;102022.52;1656973;85;20464;-80
2021/03/29 07:16:33;;;;;;;9.33;4.47;;;;;;;10.08;67.11;102027.67;1654293;85;21145;-80
2021/03/29 07:19:17;;;;;;;7.35;4.45;;;;;;;10.10;67.19;102037.17;1652139;85;20987;-80
2021/03/29 07:22:04;;;;;;;10.35;5.17;;;;;;;10.12;67.22;102033.30;1648021;86;21463;-80
2021/03/29 07:24:51;;;;;;;7.03;4.45;;;;;;;10.14;67.26;102034.19;1647943;85;25246;-81
2021/03/29 07:27:54;;;;;;;8.68;5.00;;;;;;;10.14;67.25;102040.22;1647731;86;21003;-80
2021/03/29 07:30:51;;;;;;;15.43;5.40;;;;;;;10.12;67.29;102037.18;1647234;86;21392;-80
2021/03/29 07:33:57;;;;;;;8.95;4.70;;;;;;;10.10;67.40;102039.75;1647888;85;21133;-80
2021/03/29 07:36:51;;;;;;;9.83;4.85;;;;;;;10.09;67.42;102050.94;1646276;86;21197;-80
2021/03/29 07:39:44;;;;;;;7.62;4.53;;;;;;;10.07;67.52;102051.78;1647170;86;21181;-80
2021/03/29 07:42:32;;;;;;;9.15;4.75;;;;;;;10.06;67.58;102049.63;1650441;85;21204;-80
2021/03/29 07:45:36;;;;;;;12.33;4.80;;;;;;;10.06;67.61;102056.50;1646899;84;21242;-80
2021/03/29 07:48:42;;;;;;;7.33;4.40;;;;;;;10.06;67.65;102054.79;1645939;85;21660;-80
2021/03/29 07:51:27;;;;;;;12.82;4.25;;;;;;;10.08;67.78;102058.68;1644552;86;25625;-81
2021/03/29 07:54:14;;;;;;;7.42;4.25;;;;;;;10.11;67.79;102066.47;1646507;86;21202;-80
2021/03/29 07:56:58;;;;;;;;;;;;;;;10.12;67.77;102066.48;1650687;85;21213;-81
2021/03/29 07:59:45;;;;;;;9.58;4.58;;;;;;;10.13;67.95;102072.52;1650428;85;20321;-80
2021/03/29 08:02:34;;;;;;;9.73;5.10;;;;;;;10.12;67.94;102072.94;1627514;86;21221;-80
2021/03/29 08:05:46;;;;;;;9.35;4.90;;;;;;;10.15;67.91;102073.39;1651035;85;21229;-80
2021/03/29 08:08:40;;;;;;;10.15;4.47;;;;;;;10.20;68.06;102075.20;1647826;85;21201;-80
2021/03/29 08:11:25;;;;;;;9.38;4.58;;;;;;;10.24;68.07;102072.22;1646894;86;21201;-79
2021/03/29 08:14:30;;;;;;;11.83;5.12;;;;;;;10.25;68.09;102075.24;1647039;85;21210;-79
2021/03/29 08:17:47;;;;;;;9.43;5.72;;;;;;;10.30;68.12;102078.73;1647920;84;21215;-80
2021/03/29 08:20:46;;;;;;;10.13;4.75;;;;;;;10.34;68.14;102071.88;1651356;85;21233;-80
2021/03/29 08:23:35;;;;;;;8.30;4.33;;;;;;;10.45;68.22;102072.80;1647338;85;21241;-80
2021/03/29 08:26:22;;;;;;;8.35;4.10;;;;;;;10.52;68.25;102074.15;1647306;86;21183;-80
2021/03/29 08:29:12;;;;;;;10.10;4.53;;;;;;;10.66;68.32;102078.13;1648337;86;21153;-80
2021/03/29 08:32:17;;;;;;;13.15;4.37;;;;;;;10.77;68.36;102075.62;1647067;86;21461;-80
2021/03/29 08:35:15;;;;;;;5.50;3.90;;;;;;;10.86;68.24;102071.38;1647689;86;21134;-79
2021/03/29 08:38:05;;;;;;;13.38;4.33;;;;;;;10.92;68.35;102075.26;1649302;86;21889;-80
2021/03/29 08:40:51;;;;;;;8.78;4.75;;;;;;;11.03;68.42;102077.91;1647364;85;21162;-80
2021/03/29 08:43:35;;;;;;;7.87;4.80;;;;;;;11.15;68.45;102080.56;1653502;85;21158;-80
2021/03/29 08:46:20;;;;;;;11.20;5.53;;;;;;;11.27;68.48;102081.92;1649068;85;21828;-80
2021/03/29 08:49:09;;;;;;;11.20;5.72;;;;;;;11.43;68.54;102089.77;1649520;85;21141;-80
2021/03/29 08:51:54;;;;;;;6.17;4.50;;;;;;;11.55;68.46;102082.88;1648192;86;21519;-81
2021/03/29 08:54:56;;;;;;;5.67;3.98;;;;;;;11.65;68.45;102080.31;1647902;85;21147;-79
2021/03/29 08:57:41;;;;;;;7.08;4.60;;;;;;;11.73;68.46;102083.36;1647492;86;21408;-80
2021/03/29 09:00:30;;;;;;;8.25;4.80;;;;;;;11.83;68.48;102082.56;1649704;85;21132;-81
2021/03/29 09:03:23;;;;;;;10.00;4.65;;;;;;;11.91;68.45;102084.74;1646832;85;21181;-81
2021/03/29 09:06:15;;;;;;;9.63;4.40;;;;;;;11.95;68.35;102084.31;1643795;85;21007;-80
2021/03/29 09:09:15;;;;;;;9.13;4.25;;;;;;;11.99;68.37;102076.95;1643754;86;21233;-80
2021/03/29 09:12:00;;;;;;;9.48;4.62;;;;;;;11.98;68.34;102084.72;1643472;85;21182;-80
2021/03/29 09:14:45;;;;;;;15.95;5.30;;;;;;;12.00;68.44;102084.30;1644794;85;21261;-80
2021/03/29 09:17:32;;;;;;;11.30;4.55;;;;;;;12.01;68.42;102075.66;1643412;85;21221;-80
2021/03/29 09:20:24;;;;;;;9.08;4.50;;;;;;;11.99;68.41;102082.13;1646246;85;21213;-80
2021/03/29 09:23:13;;;;;;;10.32;5.20;;;;;;;11.99;68.45;102084.72;1639530;86;21214;-80
2021/03/29 09:26:00;;;;;;;12.75;4.58;;;;;;;12.02;68.56;102079.98;1642099;85;21148;-80
2021/03/29 09:28:45;;;;;;;9.18;4.90;;;;;;;12.07;68.55;102087.33;1647346;85;21225;-80
2021/03/29 09:31:33;;;;;;;15.25;6.03;;;;;;;12.04;68.41;102081.70;1642388;86;287068;-80
2021/03/29 09:34:17;;;;;;;12.40;6.15;;;;;;;12.04;68.51;102083.44;1647432;86;21471;-80
2021/03/29 09:48:46;;;;;;;8.50;4.17;;;;;;;12.74;68.48;102083.42;1772927;79;22024;-77
2021/03/29 09:51:23;;;;;;;8.75;5.10;;;;;;;12.75;68.49;102087.75;1745114;80;21051;-77
2021/03/29 09:53:50;;;;;;;10.48;4.08;;;;;;;12.79;68.46;102092.06;1724646;82;21225;-77
2021/03/29 09:56:33;;;;;;;8.20;4.90;;;;;;;12.74;68.31;102088.18;1738294;81;21250;-77
2021/03/29 09:59:00;;;;;;;8.18;4.33;;;;;;;12.70;68.45;102095.54;1744656;81;21063;-77
2021/03/29 10:01:30;;;;;;;9.43;4.53;;;;;;;12.65;68.47;102097.70;1757712;81;21234;-78
2021/03/29 10:03:59;;;;;;;10.88;5.03;;;;;;;12.57;68.47;102089.92;1763816;81;21583;-78
2021/03/29 10:06:29;;;;;;;11.10;5.03;;;;;;;12.52;68.58;102087.77;1764554;81;21830;-77
2021/03/29 10:09:04;;;;;;;;;;;;;;;12.49;68.65;102094.25;1751586;80;22234;-78
2021/03/29 10:11:45;;;;;;;8.23;3.72;;;;;;;12.51;68.75;102097.70;1764576;79;20172;-78
2021/03/29 10:14:16;;;;;;;10.58;4.83;;;;;;;12.54;68.89;102098.58;1755529;80;21285;-78
2021/03/29 10:16:48;;;;;;;15.75;5.35;;;;;;;12.63;68.94;102093.81;1760390;80;21051;-78
2021/03/29 10:19:21;;;;;;;11.33;4.85;;;;;;;12.69;68.83;102091.64;1784119;80;21079;-78
2021/03/29 10:22:16;;;;;;;16.25;5.22;;;;;;;12.69;68.88;102089.91;1755437;80;21546;-78
2021/03/29 10:25:14;;;;;;;10.85;5.22;;;;;;;12.71;68.78;102088.18;1763869;80;21217;-77
2021/03/29 10:27:52;;;;;;;9.53;4.70;;;;;;;12.72;68.93;102088.61;1762584;80;21095;-78
2021/03/29 10:30:23;;;;;;;9.83;4.60;;;;;;;12.71;68.85;102091.21;1727905;80;21733;-77
2021/03/29 10:32:53;;;;;;;9.40;5.15;;;;;;;12.68;68.97;102086.02;1770316;80;21208;-79
2021/03/29 10:35:40;;;;;;;12.58;4.80;;;;;;;12.73;69.00;102079.96;1764375;79;21055;-77
2021/03/29 10:38:25;;;;;;;;;;;;;;;12.73;68.96;102081.26;1774834;78;21170;-77
2021/03/29 10:41:11;;;;;;;13.20;5.60;;;;;;;12.75;69.01;102073.04;1774214;78;20466;-77
2021/03/29 10:43:55;;;;;;;9.13;4.80;;;;;;;12.77;69.14;102068.71;1776688;80;21179;-77
2021/03/29 10:46:42;;;;;;;11.00;5.00;;;;;;;12.82;68.98;102072.59;1762160;80;21004;-78
2021/03/29 10:49:26;;;;;;;13.43;4.42;;;;;;;12.84;69.08;102067.83;1749406;80;21103;-77
2021/03/29 10:51:53;;;;;;;8.45;4.92;;;;;;;12.89;69.20;102067.82;1722341;81;21472;-78
2021/03/29 10:54:39;;;;;;;11.18;5.25;;;;;;;12.95;69.19;102062.62;1765708;80;20979;-77
2021/03/29 10:57:23;;;;;;;10.82;5.05;;;;;;;13.02;69.27;102055.64;1775313;78;21007;-77
2021/03/29 11:00:07;;;;;;;10.48;5.22;;;;;;;13.04;69.13;102051.31;1744467;80;21150;-77
2021/03/29 11:02:52;;;;;;;8.88;4.97;;;;;;;13.01;69.11;102043.52;1735395;80;20998;-76
2021/03/29 11:05:37;;;;;;;9.90;4.40;;;;;;;12.96;69.17;102043.58;1732600;81;21417;-75
2021/03/29 11:08:22;;;;;;;11.20;5.12;;;;;;;12.88;69.12;102045.33;1755167;80;21130;-76
2021/03/29 11:11:07;;;;;;;12.13;5.47;;;;;;;12.83;69.38;102044.03;1750429;81;21000;-76
2021/03/29 11:13:52;;;;;;;9.53;4.95;;;;;;;12.82;69.34;102044.91;1752254;81;22164;-75
2021/03/29 11:16:37;;;;;;;9.03;5.60;;;;;;;12.79;69.38;102046.21;1735570;81;21283;-75
2021/03/29 11:19:22;;;;;;;16.25;5.85;;;;;;;12.77;69.49;102037.56;1744009;80;21186;-75
2021/03/29 11:22:08;;;;;;;12.25;5.58;;;;;;;12.79;69.48;102029.77;1744148;80;21535;-76
2021/03/29 11:24:53;;;;;;;14.18;6.85;;;;;;;12.77;69.49;102028.91;1751930;80;21202;-76
2021/03/29 11:27:38;;;;;;;12.43;6.33;;;;;;;12.77;69.59;102032.80;1752372;81;21186;-77
2021/03/29 11:30:23;;;;;;;10.90;5.83;;;;;;;12.79;69.68;102025.44;1751570;81;21493;-77
2021/03/29 11:33:09;;;;;;;14.55;6.20;;;;;;;12.80;69.61;102020.69;1749259;80;21508;-76
2021/03/29 11:35:54;;;;;;;11.12;6.35;;;;;;;12.80;69.67;102020.69;1734684;80;21190;-77
2021/03/29 11:38:39;;;;;;;11.43;5.17;;;;;;;12.84;69.77;102023.70;1736132;80;21230;-77
2021/03/29 11:41:24;;;;;;;10.93;5.65;;;;;;;12.86;69.77;102019.80;1753433;80;21195;-77
2021/03/29 11:44:09;;;;;;;7.80;5.17;;;;;;;12.86;69.66;102014.17;1756019;80;21162;-77
2021/03/29 11:46:54;;;;;;;9.70;5.50;;;;;;;12.85;69.71;102014.18;1743694;80;21688;-77
2021/03/29 11:49:39;;;;;;;12.05;6.28;;;;;;;12.90;69.83;102004.64;1727087;82;21249;-77
2021/03/29 11:52:24;;;;;;;11.53;5.78;;;;;;;12.96;69.93;102005.06;1691379;83;21193;-77
2021/03/29 11:55:11;;;;;;;15.78;6.58;;;;;;;13.05;70.00;102002.40;1725748;82;21227;-78
2021/03/29 11:57:56;;;;;;;;;;;;;;;13.10;69.92;101995.45;1731364;81;21464;-78
2021/03/29 12:03:15;;;;;;;13.08;6.20;;;;;;;13.16;69.83;101995.03;1724758;81;21649;-78
2021/03/29 12:05:29;;;;;;;15.18;7.45;;;;;;;13.19;69.85;101993.72;1744949;80;21229;-78
2021/03/29 12:13:24;;;;;;;15.38;7.00;;;;;;;13.33;69.97;101983.69;1745945;80;21412;-78
2021/03/29 12:15:56;;;;;;;13.48;5.75;;;;;;;13.38;69.92;101981.93;1748937;80;21622;-75
2021/03/29 12:18:42;;;;;;;10.68;6.45;;;;;;;13.40;69.94;101972.39;1713176;81;21197;-77
2021/03/29 12:21:10;;;;;;;10.35;4.95;;;;;;;13.46;69.90;101974.95;1709598;82;21212;-77
2021/03/29 12:23:40;;;;;;;12.73;5.65;;;;;;;13.47;69.84;101974.09;1745011;80;21310;-78
2021/03/29 12:26:07;;;;;;;12.95;5.45;;;;;;;13.44;69.83;101968.91;1716415;82;21095;-77
2021/03/29 12:28:34;;;;;;;10.35;4.60;;;;;;;13.45;69.75;101966.73;1686633;82;21160;-78
2021/03/29 12:31:01;;;;;;;11.83;5.37;;;;;;;13.41;69.72;101964.59;1739246;81;21505;-78
2021/03/29 12:33:30;;;;;;;10.65;5.25;;;;;;;13.39;69.75;101958.98;1738637;81;21133;-78
2021/03/29 12:35:59;;;;;;;12.65;6.03;;;;;;;13.37;69.68;101955.09;1720439;81;21137;-77
2021/03/29 12:38:29;;;;;;;10.82;5.50;;;;;;;13.36;69.76;101952.06;1739320;81;21135;-77
2021/03/29 12:41:02;;;;;;;13.58;6.03;;;;;;;13.40;69.89;101949.02;1721092;81;117140;-77
2021/03/29 12:43:46;;;;;;;13.30;6.47;;;;;;;13.46;69.94;101947.67;1625944;88;21147;-77
2021/03/29 12:46:12;;;;;;;13.60;6.85;;;;;;;13.55;69.94;101941.95;1621910;87;21154;-77
2021/03/29 12:48:40;;;;;;;14.07;5.55;;;;;;;13.66;69.96;101940.57;1618638;86;21210;-77
2021/03/29 12:51:07;;;;;;;12.23;7.12;;;;;;;13.76;69.94;101933.12;1635880;85;21143;-77
2021/03/29 12:53:34;;;;;;;12.70;6.03;;;;;;;13.87;69.96;101929.14;1658040;85;21173;-77
2021/03/29 12:56:02;;;;;;;14.58;5.10;;;;;;;13.98;69.91;101930.35;1632438;86;21419;-77
2021/03/29 12:58:29;;;;;;;12.35;5.25;;;;;;;14.03;69.76;101928.13;1658421;85;21149;-77
2021/03/29 13:01:07;;;;;;;10.38;5.65;;;;;;;14.06;69.67;101930.67;1635176;85;21140;-77
2021/03/29 13:03:39;;;;;;;15.43;5.53;;;;;;;14.13;69.71;101928.87;1634698;85;21204;-77
2021/03/29 13:06:14;;;;;;;14.68;5.55;;;;;;;14.17;69.63;101931.44;1611709;86;21483;-77
2021/03/29 13:08:35;;;;;;;11.03;4.92;;;;;;;14.22;69.62;101928.79;1580425;86;21133;-77